createdAt,value
2023-05-24T00:00:02.624Z,10.57
2023-05-24T00:02:29.614Z,10.55
2023-05-24T00:05:00.884Z,10.47
2023-05-24T00:07:27.996Z,10.41
2023-05-24T00:09:54.966Z,10.46
2023-05-24T00:12:21.866Z,10.41
2023-05-24T00:14:50.061Z,10.40
2023-05-24T00:17:16.971Z,10.43
2023-05-24T00:19:43.847Z,10.42
2023-05-24T00:22:11.946Z,10.44
2023-05-24T00:24:38.837Z,10.35
2023-05-24T00:27:06.351Z,10.34
2023-05-24T00:29:33.246Z,10.27
2023-05-24T00:32:01.669Z,10.23
2023-05-24T00:34:28.617Z,10.20
2023-05-24T00:36:57.137Z,10.14
2023-05-24T00:39:24.178Z,10.10
2023-05-24T00:41:51.050Z,10.16
2023-05-24T00:44:17.869Z,10.08
2023-05-24T00:46:45.213Z,10.04
2023-05-24T00:49:13.666Z,9.99
2023-05-24T00:51:40.749Z,9.91
2023-05-24T00:54:07.905Z,9.92
2023-05-24T00:56:35.688Z,9.92
2023-05-24T00:59:02.755Z,9.80
2023-05-24T01:01:31.416Z,9.82
2023-05-24T01:03:59.677Z,9.71
2023-05-24T01:06:29.267Z,9.71
2023-05-24T01:09:13.110Z,9.81
2023-05-24T01:11:53.793Z,9.77
2023-05-24T01:14:29.373Z,9.71
2023-05-24T01:17:04.123Z,9.73
2023-05-24T01:19:51.435Z,9.69
2023-05-24T01:22:28.659Z,9.63
2023-05-24T01:25:03.976Z,9.59
2023-05-24T01:27:34.153Z,9.55
2023-05-24T01:30:03.129Z,9.56
2023-05-24T01:32:30.949Z,9.56
2023-05-24T01:34:57.850Z,9.59
2023-05-24T01:37:24.690Z,9.56
2023-05-24T01:39:52.462Z,9.49
2023-05-24T01:42:26.480Z,9.35
2023-05-24T01:45:08.940Z,9.34
2023-05-24T01:47:47.365Z,9.27
2023-05-24T01:50:18.812Z,9.22
2023-05-24T01:52:46.899Z,9.32
2023-05-24T01:55:17.381Z,9.32
2023-05-24T01:57:46.534Z,9.40
2023-05-24T02:00:18.709Z,9.43
2023-05-24T02:02:46.123Z,9.27
2023-05-24T02:05:13.190Z,9.26
2023-05-24T02:07:41.482Z,9.30
2023-05-24T02:10:09.205Z,9.20
2023-05-24T02:12:36.155Z,9.18
2023-05-24T02:15:03.315Z,9.19
2023-05-24T02:17:33.181Z,9.19
2023-05-24T02:20:00.565Z,9.26
2023-05-24T02:22:27.799Z,9.09
2023-05-24T02:24:54.789Z,9.06
2023-05-24T02:27:21.752Z,9.03
2023-05-24T02:29:48.664Z,9.09
2023-05-24T02:32:15.718Z,9.09
2023-05-24T02:34:44.228Z,9.08
2023-05-24T02:37:14.491Z,9.04
2023-05-24T02:39:42.009Z,9.01
2023-05-24T02:42:09.226Z,9.03
2023-05-24T02:44:36.080Z,8.98
2023-05-24T02:47:03.001Z,8.92
2023-05-24T02:49:29.871Z,8.92
2023-05-24T02:51:58.147Z,8.98
2023-05-24T02:54:25.084Z,8.95
2023-05-24T02:56:51.972Z,8.86
2023-05-24T02:59:18.913Z,8.90
2023-05-24T03:01:45.977Z,8.91
2023-05-24T03:04:12.899Z,8.91
2023-05-24T03:06:39.991Z,8.94
2023-05-24T03:09:08.317Z,8.91
2023-05-24T03:11:35.208Z,8.92
2023-05-24T03:14:02.093Z,8.89
2023-05-24T03:16:29.553Z,8.90
2023-05-24T03:18:56.530Z,8.93
2023-05-24T03:21:23.605Z,8.93
2023-05-24T03:23:50.698Z,8.86
2023-05-24T03:26:19.109Z,8.86
2023-05-24T03:28:46.011Z,8.80
2023-05-24T03:31:12.964Z,8.80
2023-05-24T03:33:39.839Z,8.74
2023-05-24T03:36:06.993Z,8.76
2023-05-24T03:38:33.999Z,8.79
2023-05-24T03:41:01.012Z,8.76
2023-05-24T03:43:29.218Z,8.77
2023-05-24T03:45:56.227Z,8.73
2023-05-24T03:48:23.183Z,8.75
2023-05-24T03:50:50.465Z,8.75
2023-05-24T03:53:17.380Z,8.78
2023-05-24T03:55:44.362Z,8.78
2023-05-24T03:58:12.703Z,8.80
2023-05-24T04:00:41.295Z,8.82
2023-05-24T04:03:09.101Z,8.79
2023-05-24T04:05:36.171Z,8.86
2023-05-24T04:08:03.138Z,8.87
2023-05-24T04:10:30.004Z,8.94
2023-05-24T04:12:57.475Z,8.99
2023-05-24T04:15:24.454Z,9.06
2023-05-24T04:17:55.782Z,9.06
2023-05-24T04:20:25.706Z,9.19
2023-05-24T04:22:52.854Z,9.22
2023-05-24T04:25:20.951Z,9.24
2023-05-24T04:27:51.014Z,9.28
2023-05-24T04:30:18.056Z,9.32
2023-05-24T04:32:44.955Z,9.24
2023-05-24T04:35:14.156Z,9.20
2023-05-24T04:37:41.103Z,9.33
2023-05-24T04:40:09.363Z,9.47
2023-05-24T04:42:36.416Z,9.55
2023-05-24T04:45:03.387Z,9.61
2023-05-24T04:47:30.506Z,9.67
2023-05-24T04:49:57.395Z,9.82
2023-05-24T04:52:25.999Z,9.86
2023-05-24T04:54:53.106Z,10.02
2023-05-24T04:57:20.049Z,10.21
2023-05-24T04:59:46.890Z,10.40
2023-05-24T05:02:13.926Z,10.53
2023-05-24T05:04:40.937Z,10.74
2023-05-24T05:07:08.353Z,10.91
2023-05-24T05:09:36.581Z,11.07
2023-05-24T05:12:03.616Z,11.21
2023-05-24T05:14:30.524Z,11.36
2023-05-24T05:16:57.548Z,11.48
2023-05-24T05:19:24.782Z,11.59
2023-05-24T05:21:51.798Z,11.57
2023-05-24T05:24:19.469Z,11.80
2023-05-24T05:26:47.707Z,11.93
2023-05-24T05:29:14.570Z,12.16
2023-05-24T05:31:41.403Z,12.23
2023-05-24T05:34:10.149Z,12.24
2023-05-24T05:36:40.815Z,12.41
2023-05-24T05:39:09.541Z,12.66
2023-05-24T05:41:38.097Z,13.81
2023-05-24T05:44:06.785Z,15.57
2023-05-24T05:46:33.755Z,17.21
2023-05-24T05:49:00.662Z,18.20
2023-05-24T05:51:27.683Z,17.33
2023-05-24T05:53:54.613Z,17.03
2023-05-24T05:56:21.547Z,17.05
2023-05-24T05:58:48.443Z,17.62
2023-05-24T06:01:17.043Z,17.15
2023-05-24T06:03:44.822Z,16.63
2023-05-24T06:06:11.886Z,16.31
2023-05-24T06:08:40.852Z,16.08
2023-05-24T06:11:07.832Z,15.93
2023-05-24T06:13:34.785Z,15.78
2023-05-24T06:16:01.769Z,15.85
2023-05-24T06:18:30.661Z,16.04
2023-05-24T06:20:57.579Z,16.24
2023-05-24T06:23:24.535Z,16.16
2023-05-24T06:25:51.397Z,16.06
2023-05-24T06:28:18.428Z,15.97
2023-05-24T06:30:45.834Z,16.03
2023-05-24T06:33:13.004Z,16.06
2023-05-24T06:35:41.300Z,16.04
2023-05-24T06:38:08.385Z,16.38
2023-05-24T06:40:35.234Z,16.24
2023-05-24T06:43:02.254Z,16.37
2023-05-24T06:45:29.253Z,16.35
2023-05-24T06:47:56.185Z,16.51
2023-05-24T06:50:23.844Z,16.81
2023-05-24T06:52:52.118Z,16.91
2023-05-24T06:55:19.983Z,17.08
2023-05-24T06:57:46.832Z,17.27
2023-05-24T07:00:14.865Z,17.37
2023-05-24T07:02:42.084Z,17.31
2023-05-24T07:05:12.637Z,17.35
2023-05-24T07:07:39.923Z,17.46
2023-05-24T07:10:10.831Z,17.51
2023-05-24T07:12:38.308Z,17.58
2023-05-24T07:15:07.150Z,17.64
2023-05-24T07:17:34.186Z,17.64
2023-05-24T07:20:01.957Z,17.64
2023-05-24T07:22:30.149Z,17.70
2023-05-24T07:24:57.011Z,17.73
2023-05-24T07:27:25.249Z,17.80
2023-05-24T07:29:52.219Z,17.84
2023-05-24T07:32:19.289Z,17.84
2023-05-24T07:34:46.251Z,17.68
2023-05-24T07:37:13.120Z,17.59
2023-05-24T07:39:40.061Z,17.49
2023-05-24T07:42:07.329Z,17.71
2023-05-24T07:44:36.154Z,17.36
2023-05-24T07:47:03.132Z,17.85
2023-05-24T07:49:30.064Z,17.86
2023-05-24T07:51:59.635Z,17.88
2023-05-24T07:54:26.771Z,17.82
2023-05-24T07:56:53.710Z,18.07
2023-05-24T07:59:20.807Z,18.59
2023-05-24T08:01:49.106Z,18.53
2023-05-24T08:04:16.340Z,18.90
2023-05-24T08:06:43.339Z,18.91
2023-05-24T08:09:10.645Z,18.84
2023-05-24T08:11:37.601Z,18.54
2023-05-24T08:14:04.433Z,18.29
2023-05-24T08:16:32.012Z,18.67
2023-05-24T08:19:00.709Z,19.38
2023-05-24T08:21:29.225Z,19.63
2023-05-24T08:23:56.781Z,19.74
2023-05-24T08:26:24.359Z,20.15
2023-05-24T08:28:51.620Z,19.95
2023-05-24T08:31:18.637Z,19.72
2023-05-24T08:33:50.293Z,19.31
2023-05-24T08:36:18.899Z,19.60
2023-05-24T08:38:46.014Z,19.08
2023-05-24T08:41:13.940Z,19.74
2023-05-24T08:43:42.165Z,19.98
2023-05-24T08:46:10.670Z,20.56
2023-05-24T08:48:46.418Z,20.30
2023-05-24T08:51:14.765Z,19.44
2023-05-24T08:53:48.461Z,19.21
2023-05-24T08:56:17.940Z,19.97
2023-05-24T08:58:47.143Z,20.71
2023-05-24T09:01:14.908Z,20.99
2023-05-24T09:03:43.504Z,21.44
2023-05-24T09:06:12.205Z,21.54
2023-05-24T09:08:42.396Z,21.56
2023-05-24T09:11:12.230Z,21.37
2023-05-24T09:13:39.920Z,20.06
2023-05-24T09:16:07.472Z,21.16
2023-05-24T09:18:34.299Z,21.48
2023-05-24T09:21:01.175Z,21.01
2023-05-24T09:23:28.349Z,21.38
2023-05-24T09:25:55.362Z,21.36
2023-05-24T09:28:25.044Z,21.38
2023-05-24T09:31:00.105Z,21.31
2023-05-24T09:33:30.418Z,21.48
2023-05-24T09:35:58.914Z,21.76
2023-05-24T09:38:26.496Z,21.26
2023-05-24T09:41:00.327Z,21.38
2023-05-24T09:43:32.993Z,22.03
2023-05-24T09:46:01.964Z,22.73
2023-05-24T09:48:29.884Z,23.24
2023-05-24T09:51:04.138Z,23.03
2023-05-24T09:53:33.918Z,22.57
2023-05-24T09:56:03.983Z,21.85
2023-05-24T09:58:33.590Z,21.63
2023-05-24T10:01:05.790Z,21.68
2023-05-24T10:03:32.751Z,22.58
2023-05-24T10:06:01.927Z,22.61
2023-05-24T10:08:28.900Z,23.37
2023-05-24T10:10:56.956Z,23.39
2023-05-24T10:13:24.182Z,23.96
2023-05-24T10:15:52.478Z,24.06
2023-05-24T10:18:19.994Z,22.87
2023-05-24T10:20:47.565Z,22.28
2023-05-24T10:23:19.830Z,22.58
2023-05-24T10:25:51.222Z,23.07
2023-05-24T10:28:20.371Z,23.78
2023-05-24T10:31:27.780Z,23.22
2023-05-24T10:34:07.040Z,22.00
2023-05-24T10:36:35.447Z,22.81
2023-05-24T10:39:03.610Z,22.52
2023-05-24T10:41:39.821Z,21.91
2023-05-24T10:44:11.276Z,22.88
2023-05-24T10:47:02.457Z,23.13
2023-05-24T10:49:31.420Z,23.32
2023-05-24T10:52:02.598Z,22.46
2023-05-24T10:54:29.602Z,22.56
2023-05-24T10:57:05.061Z,22.74
2023-05-24T10:59:38.057Z,22.71
2023-05-24T11:02:09.659Z,23.00
2023-05-24T11:04:46.047Z,23.28
2023-05-24T11:07:15.449Z,23.79
2023-05-24T11:09:46.803Z,23.37
2023-05-24T11:12:18.893Z,23.67
2023-05-24T11:14:50.499Z,22.34
2023-05-24T11:17:19.433Z,22.62
2023-05-24T11:19:50.135Z,22.07
2023-05-24T11:22:17.992Z,22.51
2023-05-24T11:24:45.531Z,23.46
2023-05-24T11:27:14.340Z,24.26
2023-05-24T11:29:42.657Z,24.72
2023-05-24T11:32:10.109Z,24.63
2023-05-24T11:34:40.017Z,23.88
2023-05-24T11:37:08.386Z,24.36
2023-05-24T11:39:37.666Z,24.02
2023-05-24T11:42:06.492Z,25.06
2023-05-24T11:44:34.672Z,25.98
2023-05-24T11:47:03.425Z,25.67
2023-05-24T11:49:30.504Z,24.33
2023-05-24T11:51:59.145Z,24.10
2023-05-24T11:54:28.584Z,24.11
2023-05-24T11:56:56.202Z,24.13
2023-05-24T11:59:25.214Z,22.79
2023-05-24T12:01:59.005Z,22.75
2023-05-24T12:04:26.182Z,23.53
2023-05-24T12:06:53.267Z,22.98
2023-05-24T12:09:20.518Z,23.56
2023-05-24T12:11:50.724Z,23.76
2023-05-24T12:14:22.996Z,24.08
2023-05-24T12:16:54.108Z,23.72
2023-05-24T12:21:55.542Z,24.02
2023-05-24T12:24:24.059Z,23.35
2023-05-24T12:26:52.508Z,22.83
2023-05-24T12:29:20.084Z,23.87
2023-05-24T12:31:49.059Z,24.21
2023-05-24T12:34:18.692Z,24.15
2023-05-24T12:36:46.465Z,23.34
2023-05-24T12:39:18.671Z,23.41
2023-05-24T12:41:46.097Z,24.06
2023-05-24T12:44:14.472Z,23.79
2023-05-24T12:46:41.416Z,23.86
2023-05-24T12:49:10.060Z,23.33
2023-05-24T12:51:36.968Z,23.78
2023-05-24T12:54:05.346Z,24.08
2023-05-24T12:56:33.405Z,23.83
2023-05-24T12:59:00.589Z,23.65
2023-05-24T13:01:28.916Z,24.00
2023-05-24T13:03:55.887Z,24.19
2023-05-24T13:06:22.996Z,23.22
2023-05-24T13:08:49.955Z,22.71
2023-05-24T13:11:17.270Z,23.67
2023-05-24T13:13:47.552Z,22.30
2023-05-24T13:16:14.661Z,23.40
2023-05-24T13:18:43.048Z,23.15
2023-05-24T13:21:12.224Z,24.13
2023-05-24T13:23:40.347Z,23.63
2023-05-24T13:26:07.392Z,23.71
2023-05-24T13:28:36.967Z,24.17
2023-05-24T13:31:04.685Z,23.99
2023-05-24T13:33:34.468Z,23.68
2023-05-24T13:36:02.775Z,23.20
2023-05-24T13:38:29.701Z,23.04
2023-05-24T13:40:56.654Z,23.45
2023-05-24T13:43:23.591Z,23.74
2023-05-24T13:45:50.819Z,23.24
2023-05-24T13:48:18.005Z,23.25
2023-05-24T13:50:45.265Z,23.32
2023-05-24T13:53:13.933Z,23.16
2023-05-24T13:55:40.928Z,22.30
2023-05-24T13:58:08.045Z,23.04
2023-05-24T14:00:36.152Z,22.94
2023-05-24T14:03:04.280Z,23.15
2023-05-24T14:05:31.342Z,22.83
2023-05-24T14:08:04.092Z,23.34
2023-05-24T14:10:32.981Z,23.58
2023-05-24T14:13:20.635Z,23.75
2023-05-24T14:15:46.968Z,23.92
2023-05-24T14:18:14.527Z,24.19
2023-05-24T14:20:41.604Z,24.26
2023-05-24T14:23:09.441Z,23.55
2023-05-24T14:25:38.120Z,22.94
2023-05-24T14:28:05.049Z,23.37
2023-05-24T14:30:32.353Z,22.82
2023-05-24T14:33:00.801Z,22.30
2023-05-24T14:35:27.832Z,23.09
2023-05-24T14:37:54.773Z,22.95
2023-05-24T14:40:24.570Z,22.62
2023-05-24T14:42:52.929Z,23.35
2023-05-24T14:45:19.806Z,22.31
2023-05-24T14:47:46.827Z,22.64
2023-05-24T14:50:13.919Z,23.23
2023-05-24T14:52:40.955Z,23.18
2023-05-24T14:55:08.607Z,22.83
2023-05-24T14:57:35.988Z,22.95
2023-05-24T15:00:04.959Z,22.80
2023-05-24T15:02:34.269Z,23.15
2023-05-24T15:05:01.621Z,23.46
2023-05-24T15:07:28.545Z,22.88
2023-05-24T15:09:55.959Z,22.34
2023-05-24T15:12:22.941Z,22.08
2023-05-24T15:14:49.899Z,22.42
2023-05-24T15:17:20.928Z,22.57
2023-05-24T15:19:48.695Z,22.43
2023-05-24T15:22:15.869Z,22.91
2023-05-24T15:24:42.714Z,22.94
2023-05-24T15:27:10.710Z,23.45
2023-05-24T15:29:37.579Z,23.33
2023-05-24T15:32:04.777Z,22.65
2023-05-24T15:34:33.012Z,22.61
2023-05-24T15:37:00.009Z,22.05
2023-05-24T15:39:27.032Z,21.91
2023-05-24T15:41:54.044Z,22.13
2023-05-24T15:44:24.892Z,22.61
2023-05-24T15:46:52.127Z,22.62
2023-05-24T15:49:19.328Z,22.45
2023-05-24T15:52:03.763Z,22.25
2023-05-24T15:54:31.750Z,22.65
2023-05-24T15:57:00.577Z,21.80
2023-05-24T15:59:27.598Z,22.36
2023-05-24T16:01:55.254Z,22.45
2023-05-24T16:04:22.218Z,22.32
2023-05-24T16:06:50.633Z,22.61
2023-05-24T16:09:17.482Z,22.07
2023-05-24T16:11:44.449Z,22.26
2023-05-24T16:14:11.524Z,22.26
2023-05-24T16:16:38.586Z,22.52
2023-05-24T16:19:05.807Z,22.51
2023-05-24T16:21:33.169Z,22.55
2023-05-24T16:24:03.397Z,22.36
2023-05-24T16:26:33.482Z,22.15
2023-05-24T16:29:01.723Z,21.81
2023-05-24T16:31:30.302Z,21.93
2023-05-24T16:33:58.839Z,22.05
2023-05-24T16:36:27.026Z,21.96
2023-05-24T16:38:54.065Z,21.66
2023-05-24T16:41:22.471Z,21.20
2023-05-24T16:43:49.488Z,21.75
2023-05-24T16:46:16.526Z,21.71
2023-05-24T16:49:00.898Z,21.55
2023-05-24T16:51:27.975Z,21.56
2023-05-24T16:53:54.934Z,21.48
2023-05-24T16:56:23.233Z,21.19
2023-05-24T16:58:50.120Z,21.22
2023-05-24T17:01:17.150Z,21.18
2023-05-24T17:03:44.132Z,21.42
2023-05-24T17:06:11.009Z,21.21
2023-05-24T17:08:38.008Z,21.06
2023-05-24T17:11:06.120Z,20.64
2023-05-24T17:13:34.471Z,20.73
2023-05-24T17:16:03.921Z,20.74
2023-05-24T17:18:31.179Z,20.46
2023-05-24T17:21:00.158Z,20.03
2023-05-24T17:23:28.241Z,20.30
2023-05-24T17:25:58.414Z,20.11
2023-05-24T17:28:27.887Z,19.97
2023-05-24T17:30:57.215Z,19.93
2023-05-24T17:33:26.041Z,19.66
2023-05-24T17:35:53.819Z,19.66
2023-05-24T17:38:20.709Z,19.76
2023-05-24T17:40:49.008Z,19.60
2023-05-24T17:43:15.950Z,19.24
2023-05-24T17:45:43.279Z,19.52
2023-05-24T17:48:11.723Z,19.89
2023-05-24T17:50:38.649Z,19.72
2023-05-24T17:53:10.980Z,19.58
2023-05-24T17:55:46.029Z,19.67
2023-05-24T17:58:12.865Z,19.67
2023-05-24T18:00:39.745Z,19.52
2023-05-24T18:03:08.251Z,19.80
2023-05-24T18:05:36.491Z,19.87
2023-05-24T18:08:03.988Z,19.55
2023-05-24T18:10:30.842Z,19.88
2023-05-24T18:12:57.797Z,19.85
2023-05-24T18:15:24.700Z,19.60
2023-05-24T18:17:51.660Z,19.71
2023-05-24T18:20:18.563Z,19.57
2023-05-24T18:22:47.416Z,19.27
2023-05-24T18:25:14.373Z,19.74
2023-05-24T18:27:41.257Z,19.41
2023-05-24T18:30:09.130Z,19.52
2023-05-24T18:32:36.907Z,19.88
2023-05-24T18:35:05.556Z,19.48
2023-05-24T18:37:32.479Z,19.49
2023-05-24T18:40:00.780Z,19.40
2023-05-24T18:42:27.621Z,19.33
2023-05-24T18:44:54.563Z,19.41
2023-05-24T18:47:21.485Z,19.27
2023-05-24T18:49:48.390Z,18.93
2023-05-24T18:52:15.424Z,19.08
2023-05-24T18:54:42.300Z,19.12
2023-05-24T18:57:10.820Z,19.09
2023-05-24T18:59:37.759Z,18.88
2023-05-24T19:02:06.191Z,18.64
2023-05-24T19:04:33.157Z,18.86
2023-05-24T19:07:00.330Z,18.74
2023-05-24T19:09:27.282Z,18.78
2023-05-24T19:11:56.333Z,18.22
2023-05-24T19:14:24.862Z,18.45
2023-05-24T19:16:52.416Z,18.37
2023-05-24T19:19:19.386Z,18.13
2023-05-24T19:21:46.628Z,18.14
2023-05-24T19:24:13.538Z,18.11
2023-05-24T19:26:40.459Z,17.95
2023-05-24T19:29:07.485Z,17.88
2023-05-24T19:31:36.401Z,17.73
2023-05-24T19:34:03.626Z,17.54
2023-05-24T19:36:32.890Z,17.71
2023-05-24T19:38:59.908Z,17.57
2023-05-24T19:41:27.053Z,17.51
2023-05-24T19:43:58.490Z,17.33
2023-05-24T19:46:25.869Z,17.27
2023-05-24T19:48:54.334Z,17.26
2023-05-24T19:51:21.422Z,17.22
2023-05-24T19:53:48.355Z,17.06
2023-05-24T19:56:15.308Z,17.15
2023-05-24T19:58:42.480Z,17.00
2023-05-24T20:01:09.346Z,16.99
2023-05-24T20:03:36.342Z,16.92
2023-05-24T20:06:04.791Z,16.86
2023-05-24T20:08:31.681Z,16.61
2023-05-24T20:10:58.507Z,16.66
2023-05-24T20:13:25.481Z,16.60
2023-05-24T20:15:54.392Z,16.45
2023-05-24T20:18:22.895Z,16.44
2023-05-24T20:20:49.936Z,16.34
2023-05-24T20:23:18.302Z,16.27
2023-05-24T20:25:45.823Z,16.26
2023-05-24T20:28:25.621Z,16.00
2023-05-24T20:30:56.370Z,16.05
2023-05-24T20:33:23.242Z,15.95
2023-05-24T20:35:50.164Z,16.01
2023-05-24T20:38:18.531Z,16.00
2023-05-24T20:40:45.390Z,15.91
2023-05-24T20:43:12.351Z,15.90
2023-05-24T20:45:39.284Z,15.70
2023-05-24T20:48:06.877Z,15.59
2023-05-24T20:50:33.771Z,15.52
2023-05-24T20:53:00.743Z,15.59
2023-05-24T20:55:29.025Z,15.61
2023-05-24T20:57:55.853Z,15.53
2023-05-24T21:00:22.877Z,15.54
2023-05-24T21:02:49.721Z,15.41
2023-05-24T21:05:16.786Z,15.46
2023-05-24T21:07:43.710Z,15.29
2023-05-24T21:10:16.718Z,15.45
2023-05-24T21:12:45.164Z,15.40
2023-05-24T21:15:12.298Z,15.31
2023-05-24T21:17:39.318Z,15.30
2023-05-24T21:20:07.557Z,15.13
2023-05-24T21:22:34.502Z,15.20
2023-05-24T21:25:01.383Z,15.13
2023-05-24T21:27:28.298Z,15.01
2023-05-24T21:29:56.543Z,15.06
2023-05-24T21:32:23.442Z,15.02
2023-05-24T21:34:50.344Z,14.99
2023-05-24T21:37:17.561Z,15.03
2023-05-24T21:39:44.701Z,14.95
2023-05-24T21:42:11.641Z,15.00
2023-05-24T21:44:38.524Z,14.96
2023-05-24T21:47:06.945Z,14.93
2023-05-24T21:49:33.802Z,15.01
2023-05-24T21:52:00.661Z,14.89
2023-05-24T21:54:27.554Z,14.88
2023-05-24T21:56:54.514Z,14.83
2023-05-24T21:59:21.476Z,14.82
2023-05-24T22:01:48.718Z,14.82
2023-05-24T22:04:17.159Z,14.82
2023-05-24T22:06:45.990Z,14.65
2023-05-24T22:09:13.767Z,14.67
2023-05-24T22:11:43.266Z,14.74
2023-05-24T22:14:10.994Z,14.69
2023-05-24T22:16:38.023Z,14.54
2023-05-24T22:19:11.606Z,14.47
2023-05-24T22:21:41.841Z,14.48
2023-05-24T22:24:08.941Z,14.36
2023-05-24T22:26:35.897Z,14.45
2023-05-24T22:29:05.905Z,14.41
2023-05-24T22:31:33.777Z,14.39
2023-05-24T22:34:03.934Z,14.26
2023-05-24T22:36:35.112Z,14.22
2023-05-24T22:39:04.285Z,14.06
2023-05-24T22:41:31.515Z,14.09
2023-05-24T22:43:58.556Z,14.14
2023-05-24T22:46:25.849Z,14.05
2023-05-24T22:48:53.032Z,13.93
2023-05-24T22:51:20.189Z,14.00
2023-05-24T22:53:47.314Z,14.04
2023-05-24T22:56:15.866Z,13.97
2023-05-24T22:58:42.890Z,13.82
2023-05-24T23:01:09.851Z,13.81
2023-05-24T23:03:36.821Z,13.62
2023-05-24T23:06:04.601Z,13.72
2023-05-24T23:08:34.715Z,13.71
2023-05-24T23:11:01.570Z,13.66
2023-05-24T23:13:33.496Z,13.59
2023-05-24T23:16:00.680Z,13.58
2023-05-24T23:18:27.923Z,13.58
2023-05-24T23:20:56.069Z,13.61
2023-05-24T23:23:25.027Z,13.63
2023-05-24T23:25:52.094Z,13.60
2023-05-24T23:28:19.611Z,13.64
2023-05-24T23:30:47.856Z,13.61
2023-05-24T23:33:14.775Z,13.49
2023-05-24T23:35:41.987Z,13.53
2023-05-24T23:38:09.104Z,13.55
2023-05-24T23:40:36.714Z,13.63
2023-05-24T23:43:03.831Z,13.60
2023-05-24T23:45:30.850Z,13.63
2023-05-24T23:47:59.553Z,13.61
2023-05-24T23:50:27.494Z,13.58
2023-05-24T23:52:54.860Z,13.51
2023-05-24T23:55:22.215Z,13.48
2023-05-24T23:57:49.443Z,13.43
